• Join FlightAware (Why Join?)
  • Login
  • US Flag 
01:27AM EDT


 

Airport Tracker/Info


-or-


 

Live Flight TrackerFlight Track Log ✈ SWA2353 ✈ 01-May-2013 ✈ KPHL - KMDW

Flight Track Log - Related Links

Times and Time Zones

All times are in EDT time to prevent confusion due to time zone crossing. See the SWA2353 flight status page for this flight to view local times or setup timezone preferences in your user account.

Time Position Orientation Groundspeed Altitude Reporting Facility
EDT Latitude Longitude Course Direction KTS MPH feet Rate Location/Type
06:28PM 39.8667 -75.2333 57° Northeast 136 157 700  Level Philadelphia TRACON
06:28PM 39.8833 -75.2000 57° Northeast 175 201 1,800 2,400 Climbing Philadelphia TRACON
06:29PM 39.9000 -75.1333 72° East 202 232 4,600 2,760 Climbing Philadelphia TRACON
06:30PM 39.9667 -75.1333 360° North 265 305 7,400 2,700 Climbing Philadelphia TRACON
06:31PM 40.0167 -75.2167 308° West 299 344 10,000 1,320 Climbing Philadelphia TRACON
06:32PM 40.0667 -75.3167 303° West 376 433 10,100 240 Climbing Philadelphia TRACON
06:34PM 40.1364 -75.4272 310° West 371 427 10,500 1,260 Climbing New York Center
06:35PM 40.1950 -75.5208 309° West 373 429 12,800 3,180 Climbing New York Center
06:36PM 40.2697 -75.6322 311° West 368 423 17,000 1,980 Climbing New York Center
06:37PM 40.3325 -75.7236 312° West 368 423 16,900 900 Descending New York Center
06:38PM 40.4069 -75.8381 311° West 368 423 18,800 2,100 Climbing New York Center
06:39PM 40.4500 -75.9475 297° West 368 423 21,100 2,520 Climbing New York Center
06:40PM 40.4764 -76.1078 282° West 380 437 23,900 2,220 Climbing New York Center
06:41PM 40.4950 -76.2458 280° West 393 452 25,600 1,740 Climbing New York Center
06:42PM 40.5192 -76.4006 282° West 419 482 27,500 1,860 Climbing New York Center
06:43PM 40.5447 -76.5611 282° West 440 506 29,400 1,740 Climbing New York Center
06:44PM 40.5806 -76.7200 287° West 450 518 31,000 1,320 Climbing New York Center
06:45PM 40.6225 -76.8767 289° West 460 529 32,000 1,200 Climbing New York Center
06:46PM 40.6494 -77.0378 282° West 460 529 33,500 1,560 Climbing New York Center
06:47PM 40.6761 -77.2044 282° West 460 529 35,200 1,560 Climbing New York Center
06:48PM 40.7267 -77.5253 282° West 451 519 38,000 960 Climbing Cleveland Center
06:49PM 40.7517 -77.6803 282° West 451 519 38,000  Level Cleveland Center
06:50PM 40.7764 -77.8411 282° West 446 513 38,000  Level Cleveland Center
06:51PM 40.7989 -77.9967 281° West 446 513 38,000  Level Cleveland Center
06:52PM 40.8231 -78.1492 282° West 446 513 38,000  Level Cleveland Center
06:53PM 40.8467 -78.2911 282° West 441 507 38,000  Level Cleveland Center
06:54PM 40.8706 -78.4467 282° West 441 507 38,000  Level Cleveland Center
06:55PM 40.8922 -78.6000 281° West 441 507 38,000  Level Cleveland Center
06:56PM 40.9156 -78.7558 281° West 441 507 38,000  Level Cleveland Center
06:57PM 40.9389 -78.9119 281° West 436 502 38,000  Level Cleveland Center
06:58PM 40.9597 -79.0653 280° West 436 502 38,000  Level Cleveland Center
06:59PM 40.9825 -79.2161 281° West 425 489 38,000  Level Cleveland Center
07:00PM 41.0050 -79.3725 281° West 425 489 38,000  Level Cleveland Center
07:01PM 41.0253 -79.5289 280° West 425 489 38,000  Level Cleveland Center
07:02PM 41.0475 -79.6828 281° West 425 489 38,000  Level Cleveland Center
07:03PM 41.0675 -79.8394 280° West 425 489 38,000  Level Cleveland Center
07:04PM 41.0892 -79.9936 281° West 425 489 38,000  Level Cleveland Center
07:05PM 41.1108 -80.1506 280° West 425 489 38,000  Level Cleveland Center
07:06PM 41.1300 -80.3047 279° West 425 489 38,000  Level Cleveland Center
07:07PM 41.1533 -80.4783 280° West 425 489 38,000  Level Cleveland Center
07:08PM 41.1700 -80.6328 278° West 425 489 38,000  Level Cleveland Center
07:09PM 41.1906 -80.7872 280° West 430 495 38,000  Level Cleveland Center
07:10PM 41.2111 -80.9447 280° West 425 489 38,000  Level Cleveland Center
07:11PM 41.2314 -81.1022 280° West 430 495 38,000  Level Cleveland Center
07:12PM 41.2514 -81.2569 280° West 430 495 38,000  Level Cleveland Center
07:13PM 41.2711 -81.4175 279° West 430 495 38,000  Level Cleveland Center
07:14PM 41.2906 -81.5753 279° West 430 495 38,000  Level Cleveland Center
07:15PM 41.3100 -81.7358 279° West 435 501 38,000  Level Cleveland Center
07:16PM 41.3311 -81.8967 280° West 435 501 38,000  Level Cleveland Center
07:17PM 41.3442 -82.0242 278° West 440 506 38,000  Level Cleveland Center
07:18PM 41.3603 -82.2208 276° West 445 512 38,000  Level Cleveland Center
07:19PM 41.3706 -82.3817 275° West 445 512 38,000  Level Cleveland Center
07:20PM 41.3783 -82.5422 274° West 445 512 38,000  Level Cleveland Center
07:21PM 41.3878 -82.7031 275° West 445 512 38,000  Level Cleveland Center
07:22PM 41.3972 -82.8642 275° West 445 512 38,000  Level Cleveland Center
07:23PM 41.4044 -83.0278 273° West 445 512 38,000  Level Cleveland Center
07:24PM 41.4136 -83.1692 275° West 445 512 38,000 -60 Level Cleveland Center
07:25PM 41.4200 -83.3439 273° West 440 506 37,900 -600 Descending Cleveland Center
07:26PM 41.4286 -83.5050 274° West 440 506 36,900 -960 Descending Cleveland Center
07:27PM 41.4369 -83.6633 274° West 440 506 36,000 -960 Descending Cleveland Center
07:28PM 41.4447 -83.8300 274° West 445 512 35,000 -540 Descending Cleveland Center
07:29PM 41.4506 -83.9936 273° West 445 512 35,000  Level Cleveland Center
07:30PM 41.4578 -84.1603 273° West 445 512 35,000  Level Cleveland Center
07:31PM 41.4681 -84.3022 276° West 445 512 35,000 -1,500 Level Cleveland Center
07:34PM 41.4828 -84.7003 273° West 446 513 30,000 -1,500 Descending Chicago Center
07:35PM 41.4889 -84.8644 273° West 444 511 30,000 -780 Level Chicago Center
07:36PM 41.4950 -85.0303 273° West 448 516 28,500 -1,860 Descending Chicago Center
07:37PM 41.5003 -85.1925 273° West 438 504 26,200 -2,280 Descending Chicago Center
07:38PM 41.5042 -85.3822 272° West 422 486 23,900 -1,680 Descending Chicago Center
07:39PM 41.5100 -85.5342 273° West 398 458 22,800 -1,380 Descending Chicago Center
07:40PM 41.5147 -85.6797 273° West 388 447 21,100 -1,800 Descending Chicago Center
07:41PM 41.5192 -85.8172 273° West 371 427 19,200 -1,800 Descending Chicago Center
07:42PM 41.5222 -85.9517 272° West 363 418 17,500 -1,740 Descending Chicago Center
07:43PM 41.5247 -86.0800 272° West 349 402 15,600 -1,860 Descending Chicago Center
07:44PM 41.5225 -86.2069 269° West 344 396 13,700 -2,040 Descending Chicago Center
07:45PM 41.5233 -86.3569 270° West 337 388 11,500 -1,680 Descending Chicago Center
07:46PM 41.5219 -86.4733 269° West 318 366 10,300 -780 Descending Chicago Center
07:47PM 41.5203 -86.5808 269° West 294 338 10,000 -180 Descending Chicago Center
07:48PM 41.5206 -86.6847 270° West 281 323 10,000  Level Chicago Center
07:49PM 41.5200 -86.7953 270° West 283 326 10,000 -240 Level Chicago Center
07:50PM 41.5186 -86.9008 269° West 287 330 9,500 -960 Descending Chicago Center
07:51PM 41.5178 -87.0053 269° West 284 327 8,100 -1,260 Descending Chicago Center
07:52PM 41.5175 -87.1267 270° West 277 319 6,900 -600 Descending Chicago Center
07:53PM 41.5333 -87.2000 286° West 285 328 7,100 -180 Climbing Chicago TRACON
07:54PM 41.5667 -87.3000 294° West 288 331 6,600 -900 Descending Chicago TRACON
07:55PM 41.6000 -87.4000 294° West 286 329 5,300 -1,260 Descending Chicago TRACON
07:56PM 41.6067 -87.4186 296° West 289 333 4,900 -840 Descending Chicago Center
07:57PM 41.6378 -87.5100 295° West 281 323 4,100 -660 Descending Chicago Center
07:58PM 41.6844 -87.6125 301° West 277 319 3,600 -780 Descending Chicago Center
07:58PM 41.7167 -87.6500 319° Northwest 276 318 2,900 -780 Descending Chicago TRACON
07:59PM 41.7667 -87.7000 323° Northwest 269 310 2,500 -480 Descending Chicago TRACON
08:00PM 41.8167 -87.6833 14° North 198 228 2,100 -780 Descending Chicago TRACON
08:01PM 41.8000 -87.7333 246° West 134 154 1,000 -1,140 Descending Chicago TRACON